sensor_id;sensor_type;location;lat;lon;timestamp;temperature;humidity
14401;DHT22;7285;50.894;5.462;2024-02-28T00:02:18;-0.20;99.90
14401;DHT22;7285;50.894;5.462;2024-02-28T00:04:45;-0.20;99.90
14401;DHT22;7285;50.894;5.462;2024-02-28T00:07:12;-0.10;99.90
14401;DHT22;7285;50.894;5.462;2024-02-28T00:09:40;-0.20;99.90
14401;DHT22;7285;50.894;5.462;2024-02-28T00:12:07;-0.10;99.90
14401;DHT22;7285;50.894;5.462;2024-02-28T00:14:35;0.00;99.90
14401;DHT22;7285;50.894;5.462;2024-02-28T00:17:03;-0.10;99.90
14401;DHT22;7285;50.894;5.462;2024-02-28T00:19:30;-0.20;99.90
14401;DHT22;7285;50.894;5.462;2024-02-28T00:21:57;-0.20;99.90
14401;DHT22;7285;50.894;5.462;2024-02-28T00:24:25;-0.20;99.90
14401;DHT22;7285;50.894;5.462;2024-02-28T00:26:53;-0.30;99.90
14401;DHT22;7285;50.894;5.462;2024-02-28T00:29:20;-0.30;99.90
14401;DHT22;7285;50.894;5.462;2024-02-28T00:31:47;-0.30;99.90
14401;DHT22;7285;50.894;5.462;2024-02-28T00:34:15;-0.40;99.90
14401;DHT22;7285;50.894;5.462;2024-02-28T00:36:41;-0.40;99.90
14401;DHT22;7285;50.894;5.462;2024-02-28T00:39:10;-0.30;99.90
14401;DHT22;7285;50.894;5.462;2024-02-28T00:41:37;-0.40;99.90
14401;DHT22;7285;50.894;5.462;2024-02-28T00:44:05;-0.50;99.90
14401;DHT22;7285;50.894;5.462;2024-02-28T00:46:32;-0.30;99.90
14401;DHT22;7285;50.894;5.462;2024-02-28T00:48:59;-0.40;99.90
14401;DHT22;7285;50.894;5.462;2024-02-28T00:51:26;-0.50;99.90
14401;DHT22;7285;50.894;5.462;2024-02-28T00:53:53;-0.50;99.90
14401;DHT22;7285;50.894;5.462;2024-02-28T00:56:19;-0.50;99.90
14401;DHT22;7285;50.894;5.462;2024-02-28T00:58:46;-0.50;99.90
14401;DHT22;7285;50.894;5.462;2024-02-28T01:01:15;-0.50;99.90
14401;DHT22;7285;50.894;5.462;2024-02-28T01:03:42;-0.50;99.90
14401;DHT22;7285;50.894;5.462;2024-02-28T01:06:09;-0.50;99.90
14401;DHT22;7285;50.894;5.462;2024-02-28T01:08:36;-0.60;99.90
14401;DHT22;7285;50.894;5.462;2024-02-28T01:11:03;-0.60;99.90
14401;DHT22;7285;50.894;5.462;2024-02-28T01:13:30;-0.60;99.90
14401;DHT22;7285;50.894;5.462;2024-02-28T01:15:56;-0.50;99.90
14401;DHT22;7285;50.894;5.462;2024-02-28T01:18:26;-0.60;99.90
14401;DHT22;7285;50.894;5.462;2024-02-28T01:20:56;-0.60;99.90
14401;DHT22;7285;50.894;5.462;2024-02-28T01:23:23;-0.60;99.90
14401;DHT22;7285;50.894;5.462;2024-02-28T01:25:50;-0.60;99.90
14401;DHT22;7285;50.894;5.462;2024-02-28T01:28:17;-0.60;99.90
14401;DHT22;7285;50.894;5.462;2024-02-28T01:30:44;-0.70;99.90
14401;DHT22;7285;50.894;5.462;2024-02-28T01:33:11;-0.70;99.90
14401;DHT22;7285;50.894;5.462;2024-02-28T01:35:40;-0.60;99.90
14401;DHT22;7285;50.894;5.462;2024-02-28T01:38:07;-0.60;99.90
14401;DHT22;7285;50.894;5.462;2024-02-28T01:40:34;-0.50;99.90
14401;DHT22;7285;50.894;5.462;2024-02-28T01:43:07;-0.60;99.90
14401;DHT22;7285;50.894;5.462;2024-02-28T01:45:34;-0.60;99.90
14401;DHT22;7285;50.894;5.462;2024-02-28T01:48:01;-0.70;99.90
14401;DHT22;7285;50.894;5.462;2024-02-28T01:50:28;-0.70;99.90
14401;DHT22;7285;50.894;5.462;2024-02-28T01:52:57;-0.70;99.90
14401;DHT22;7285;50.894;5.462;2024-02-28T01:55:25;-0.70;99.90
14401;DHT22;7285;50.894;5.462;2024-02-28T01:57:52;-0.80;99.90
14401;DHT22;7285;50.894;5.462;2024-02-28T02:00:19;-0.80;99.90
14401;DHT22;7285;50.894;5.462;2024-02-28T02:02:48;-0.80;99.90
14401;DHT22;7285;50.894;5.462;2024-02-28T02:05:15;-0.70;99.90
14401;DHT22;7285;50.894;5.462;2024-02-28T02:07:47;-0.80;99.90
14401;DHT22;7285;50.894;5.462;2024-02-28T02:10:15;-0.90;99.90
14401;DHT22;7285;50.894;5.462;2024-02-28T02:12:42;-0.80;99.90
14401;DHT22;7285;50.894;5.462;2024-02-28T02:15:09;-0.80;99.90
14401;DHT22;7285;50.894;5.462;2024-02-28T02:17:36;-0.80;99.90
14401;DHT22;7285;50.894;5.462;2024-02-28T02:20:04;-0.90;99.90
14401;DHT22;7285;50.894;5.462;2024-02-28T02:22:34;-0.90;99.90
14401;DHT22;7285;50.894;5.462;2024-02-28T02:25:04;-0.90;99.90
14401;DHT22;7285;50.894;5.462;2024-02-28T02:27:31;-0.90;99.90
14401;DHT22;7285;50.894;5.462;2024-02-28T02:29:58;-0.90;99.90
14401;DHT22;7285;50.894;5.462;2024-02-28T02:32:25;-1.00;99.90
14401;DHT22;7285;50.894;5.462;2024-02-28T02:34:52;-0.90;99.90
14401;DHT22;7285;50.894;5.462;2024-02-28T02:37:19;-0.90;99.90
14401;DHT22;7285;50.894;5.462;2024-02-28T02:39:47;-0.90;99.90
14401;DHT22;7285;50.894;5.462;2024-02-28T02:42:14;-0.90;99.90
14401;DHT22;7285;50.894;5.462;2024-02-28T02:44:42;-1.00;99.90
14401;DHT22;7285;50.894;5.462;2024-02-28T02:47:09;-1.00;99.90
14401;DHT22;7285;50.894;5.462;2024-02-28T02:49:36;-1.00;99.90
14401;DHT22;7285;50.894;5.462;2024-02-28T02:52:03;-1.10;99.90
14401;DHT22;7285;50.894;5.462;2024-02-28T02:54:30;-1.00;99.90
14401;DHT22;7285;50.894;5.462;2024-02-28T02:56:58;-1.10;99.90
14401;DHT22;7285;50.894;5.462;2024-02-28T02:59:25;-1.00;99.90
14401;DHT22;7285;50.894;5.462;2024-02-28T03:01:52;-1.00;99.90
14401;DHT22;7285;50.894;5.462;2024-02-28T03:04:19;-1.00;99.90
14401;DHT22;7285;50.894;5.462;2024-02-28T03:06:46;-1.00;99.90
14401;DHT22;7285;50.894;5.462;2024-02-28T03:09:13;-1.00;99.90
14401;DHT22;7285;50.894;5.462;2024-02-28T03:11:40;-1.00;99.90
14401;DHT22;7285;50.894;5.462;2024-02-28T03:14:08;-1.10;99.90
14401;DHT22;7285;50.894;5.462;2024-02-28T03:16:35;-1.10;99.90
14401;DHT22;7285;50.894;5.462;2024-02-28T03:19:03;-1.10;99.90
14401;DHT22;7285;50.894;5.462;2024-02-28T03:21:30;-1.20;99.90
14401;DHT22;7285;50.894;5.462;2024-02-28T03:23:57;-1.30;99.90
14401;DHT22;7285;50.894;5.462;2024-02-28T03:26:24;-1.30;99.90
14401;DHT22;7285;50.894;5.462;2024-02-28T03:28:51;-1.30;99.90
14401;DHT22;7285;50.894;5.462;2024-02-28T03:31:19;-1.30;99.90
14401;DHT22;7285;50.894;5.462;2024-02-28T03:33:46;-1.20;99.90
14401;DHT22;7285;50.894;5.462;2024-02-28T03:36:13;-1.20;99.90
14401;DHT22;7285;50.894;5.462;2024-02-28T03:38:40;-1.30;99.90
14401;DHT22;7285;50.894;5.462;2024-02-28T03:41:07;-1.20;99.90
14401;DHT22;7285;50.894;5.462;2024-02-28T03:43:34;-1.10;99.90
14401;DHT22;7285;50.894;5.462;2024-02-28T03:46:01;-1.00;99.90
14401;DHT22;7285;50.894;5.462;2024-02-28T03:48:29;-1.00;99.90
14401;DHT22;7285;50.894;5.462;2024-02-28T03:50:56;-0.90;99.90
14401;DHT22;7285;50.894;5.462;2024-02-28T03:53:23;-0.90;99.90
14401;DHT22;7285;50.894;5.462;2024-02-28T03:55:50;-0.80;99.90
14401;DHT22;7285;50.894;5.462;2024-02-28T03:58:17;-0.80;99.90
14401;DHT22;7285;50.894;5.462;2024-02-28T04:00:44;-0.70;99.90
14401;DHT22;7285;50.894;5.462;2024-02-28T04:03:11;-0.60;99.90
14401;DHT22;7285;50.894;5.462;2024-02-28T04:05:40;-0.60;99.90
14401;DHT22;7285;50.894;5.462;2024-02-28T04:08:07;-0.60;99.90
14401;DHT22;7285;50.894;5.462;2024-02-28T04:10:34;-0.50;99.90
14401;DHT22;7285;50.894;5.462;2024-02-28T04:13:01;-0.50;99.90
14401;DHT22;7285;50.894;5.462;2024-02-28T04:15:29;-0.40;99.90
14401;DHT22;7285;50.894;5.462;2024-02-28T04:17:56;-0.50;99.90
14401;DHT22;7285;50.894;5.462;2024-02-28T04:20:23;-0.40;99.90
14401;DHT22;7285;50.894;5.462;2024-02-28T04:22:52;-0.30;99.90
14401;DHT22;7285;50.894;5.462;2024-02-28T04:25:19;-0.30;99.90
14401;DHT22;7285;50.894;5.462;2024-02-28T04:27:45;-0.30;99.90
14401;DHT22;7285;50.894;5.462;2024-02-28T04:30:13;-0.40;99.90
14401;DHT22;7285;50.894;5.462;2024-02-28T04:32:40;-0.20;99.90
14401;DHT22;7285;50.894;5.462;2024-02-28T04:35:07;-0.20;99.90
14401;DHT22;7285;50.894;5.462;2024-02-28T04:37:34;-0.20;99.90
14401;DHT22;7285;50.894;5.462;2024-02-28T04:40:03;-0.30;99.90
14401;DHT22;7285;50.894;5.462;2024-02-28T04:42:32;-0.30;99.90
14401;DHT22;7285;50.894;5.462;2024-02-28T04:44:59;-0.20;99.90
14401;DHT22;7285;50.894;5.462;2024-02-28T04:47:26;-0.30;99.90
14401;DHT22;7285;50.894;5.462;2024-02-28T04:49:53;-0.30;99.90
14401;DHT22;7285;50.894;5.462;2024-02-28T04:52:20;-0.20;99.90
14401;DHT22;7285;50.894;5.462;2024-02-28T04:54:47;-0.30;99.90
14401;DHT22;7285;50.894;5.462;2024-02-28T04:57:15;-0.10;99.90
14401;DHT22;7285;50.894;5.462;2024-02-28T04:59:44;-0.20;99.90
14401;DHT22;7285;50.894;5.462;2024-02-28T05:02:12;-0.10;99.90
14401;DHT22;7285;50.894;5.462;2024-02-28T05:04:39;-0.10;99.90
14401;DHT22;7285;50.894;5.462;2024-02-28T05:07:06;-0.20;99.90
14401;DHT22;7285;50.894;5.462;2024-02-28T05:09:33;-0.10;99.90
14401;DHT22;7285;50.894;5.462;2024-02-28T05:12:00;-0.10;99.90
14401;DHT22;7285;50.894;5.462;2024-02-28T05:14:28;-0.30;99.90
14401;DHT22;7285;50.894;5.462;2024-02-28T05:16:55;-0.20;99.90
14401;DHT22;7285;50.894;5.462;2024-02-28T05:19:22;-0.10;99.90
14401;DHT22;7285;50.894;5.462;2024-02-28T05:21:49;-0.20;99.90
14401;DHT22;7285;50.894;5.462;2024-02-28T05:24:16;-0.20;99.90
14401;DHT22;7285;50.894;5.462;2024-02-28T05:26:43;-0.30;99.90
14401;DHT22;7285;50.894;5.462;2024-02-28T05:29:09;-0.30;99.90
14401;DHT22;7285;50.894;5.462;2024-02-28T05:31:37;-0.30;99.90
14401;DHT22;7285;50.894;5.462;2024-02-28T05:34:04;-0.30;99.90
14401;DHT22;7285;50.894;5.462;2024-02-28T05:36:31;-0.50;99.90
14401;DHT22;7285;50.894;5.462;2024-02-28T05:39:00;-0.30;99.90
14401;DHT22;7285;50.894;5.462;2024-02-28T05:41:27;-0.30;99.90
14401;DHT22;7285;50.894;5.462;2024-02-28T05:43:55;-0.50;99.90
14401;DHT22;7285;50.894;5.462;2024-02-28T05:46:21;-0.40;99.90
14401;DHT22;7285;50.894;5.462;2024-02-28T05:48:50;-0.50;99.90
14401;DHT22;7285;50.894;5.462;2024-02-28T05:51:17;-0.50;99.90
14401;DHT22;7285;50.894;5.462;2024-02-28T05:53:44;-0.40;99.90
14401;DHT22;7285;50.894;5.462;2024-02-28T05:56:11;-0.50;99.90
14401;DHT22;7285;50.894;5.462;2024-02-28T05:58:40;-0.50;99.90
14401;DHT22;7285;50.894;5.462;2024-02-28T06:01:09;-0.60;99.90
14401;DHT22;7285;50.894;5.462;2024-02-28T06:03:36;-0.50;99.90
14401;DHT22;7285;50.894;5.462;2024-02-28T06:06:04;-0.70;99.90
14401;DHT22;7285;50.894;5.462;2024-02-28T06:08:32;-0.70;99.90
14401;DHT22;7285;50.894;5.462;2024-02-28T06:11:00;-0.50;99.90
14401;DHT22;7285;50.894;5.462;2024-02-28T06:13:27;-0.60;99.90
14401;DHT22;7285;50.894;5.462;2024-02-28T06:15:54;-0.60;99.90
14401;DHT22;7285;50.894;5.462;2024-02-28T06:18:21;-0.70;99.90
14401;DHT22;7285;50.894;5.462;2024-02-28T06:20:48;-0.70;99.90
14401;DHT22;7285;50.894;5.462;2024-02-28T06:23:17;-0.70;99.90
14401;DHT22;7285;50.894;5.462;2024-02-28T06:25:44;-0.70;99.90
14401;DHT22;7285;50.894;5.462;2024-02-28T06:28:10;-0.80;99.90
14401;DHT22;7285;50.894;5.462;2024-02-28T06:30:37;-0.60;99.90
14401;DHT22;7285;50.894;5.462;2024-02-28T06:33:04;-0.70;99.90
14401;DHT22;7285;50.894;5.462;2024-02-28T06:35:31;-0.80;99.90
14401;DHT22;7285;50.894;5.462;2024-02-28T06:37:58;-0.60;99.90
14401;DHT22;7285;50.894;5.462;2024-02-28T06:40:26;-0.70;99.90
14401;DHT22;7285;50.894;5.462;2024-02-28T06:42:54;-0.80;99.90
14401;DHT22;7285;50.894;5.462;2024-02-28T06:45:21;-0.70;99.90
14401;DHT22;7285;50.894;5.462;2024-02-28T06:47:48;-0.80;99.90
14401;DHT22;7285;50.894;5.462;2024-02-28T06:50:15;-0.70;99.90
14401;DHT22;7285;50.894;5.462;2024-02-28T06:52:42;-0.50;99.90
14401;DHT22;7285;50.894;5.462;2024-02-28T06:55:09;-0.50;99.90
14401;DHT22;7285;50.894;5.462;2024-02-28T06:57:39;-0.50;99.90
14401;DHT22;7285;50.894;5.462;2024-02-28T07:00:07;-0.50;99.90
14401;DHT22;7285;50.894;5.462;2024-02-28T07:02:34;-0.20;99.90
14401;DHT22;7285;50.894;5.462;2024-02-28T07:05:01;-0.10;99.90
14401;DHT22;7285;50.894;5.462;2024-02-28T07:07:30;0.00;99.90
14401;DHT22;7285;50.894;5.462;2024-02-28T07:09:57;-0.10;99.90
14401;DHT22;7285;50.894;5.462;2024-02-28T07:12:24;0.00;99.90
14401;DHT22;7285;50.894;5.462;2024-02-28T07:14:52;0.30;99.90
14401;DHT22;7285;50.894;5.462;2024-02-28T07:17:20;0.20;99.90
14401;DHT22;7285;50.894;5.462;2024-02-28T07:19:47;0.20;99.90
14401;DHT22;7285;50.894;5.462;2024-02-28T07:22:14;0.50;99.90
14401;DHT22;7285;50.894;5.462;2024-02-28T07:24:41;0.50;99.90
14401;DHT22;7285;50.894;5.462;2024-02-28T07:27:08;0.40;99.90
14401;DHT22;7285;50.894;5.462;2024-02-28T07:29:36;0.40;99.90
14401;DHT22;7285;50.894;5.462;2024-02-28T07:32:05;0.70;99.90
14401;DHT22;7285;50.894;5.462;2024-02-28T07:34:32;0.80;99.90
14401;DHT22;7285;50.894;5.462;2024-02-28T07:37:00;0.70;99.90
14401;DHT22;7285;50.894;5.462;2024-02-28T07:39:27;0.70;99.90
14401;DHT22;7285;50.894;5.462;2024-02-28T07:41:54;0.80;99.90
14401;DHT22;7285;50.894;5.462;2024-02-28T07:44:20;0.80;99.90
14401;DHT22;7285;50.894;5.462;2024-02-28T07:46:47;0.80;99.90
14401;DHT22;7285;50.894;5.462;2024-02-28T07:49:17;1.00;99.90
14401;DHT22;7285;50.894;5.462;2024-02-28T07:51:44;1.20;99.90
14401;DHT22;7285;50.894;5.462;2024-02-28T07:54:11;1.30;99.90
14401;DHT22;7285;50.894;5.462;2024-02-28T07:56:38;1.20;99.90
14401;DHT22;7285;50.894;5.462;2024-02-28T07:59:05;1.30;99.90
14401;DHT22;7285;50.894;5.462;2024-02-28T08:01:33;1.20;99.90
14401;DHT22;7285;50.894;5.462;2024-02-28T08:04:00;1.50;99.90
14401;DHT22;7285;50.894;5.462;2024-02-28T08:06:28;1.70;99.90
14401;DHT22;7285;50.894;5.462;2024-02-28T08:08:56;1.60;99.90
14401;DHT22;7285;50.894;5.462;2024-02-28T08:11:23;1.80;99.90
14401;DHT22;7285;50.894;5.462;2024-02-28T08:13:50;2.10;99.90
14401;DHT22;7285;50.894;5.462;2024-02-28T08:16:17;2.20;99.90
14401;DHT22;7285;50.894;5.462;2024-02-28T08:18:44;2.20;99.90
14401;DHT22;7285;50.894;5.462;2024-02-28T08:21:11;2.30;99.90
14401;DHT22;7285;50.894;5.462;2024-02-28T08:23:39;2.50;99.90
14401;DHT22;7285;50.894;5.462;2024-02-28T08:26:06;2.40;99.90
14401;DHT22;7285;50.894;5.462;2024-02-28T08:28:33;2.60;99.90
14401;DHT22;7285;50.894;5.462;2024-02-28T08:31:00;2.70;99.90
14401;DHT22;7285;50.894;5.462;2024-02-28T08:33:27;3.00;99.90
14401;DHT22;7285;50.894;5.462;2024-02-28T08:35:54;3.10;99.90
14401;DHT22;7285;50.894;5.462;2024-02-28T08:38:21;3.40;99.90
14401;DHT22;7285;50.894;5.462;2024-02-28T08:40:49;3.50;99.90
14401;DHT22;7285;50.894;5.462;2024-02-28T08:43:16;3.50;99.90
14401;DHT22;7285;50.894;5.462;2024-02-28T08:45:43;3.30;99.90
14401;DHT22;7285;50.894;5.462;2024-02-28T08:48:10;3.70;99.90
14401;DHT22;7285;50.894;5.462;2024-02-28T08:50:36;3.60;99.90
14401;DHT22;7285;50.894;5.462;2024-02-28T08:53:04;3.80;99.90
14401;DHT22;7285;50.894;5.462;2024-02-28T08:55:30;4.00;99.90
14401;DHT22;7285;50.894;5.462;2024-02-28T08:57:59;4.20;99.90
14401;DHT22;7285;50.894;5.462;2024-02-28T09:00:26;4.40;99.90
14401;DHT22;7285;50.894;5.462;2024-02-28T09:02:52;4.70;99.90
14401;DHT22;7285;50.894;5.462;2024-02-28T09:05:19;4.80;99.90
14401;DHT22;7285;50.894;5.462;2024-02-28T09:07:46;4.90;99.90
14401;DHT22;7285;50.894;5.462;2024-02-28T09:10:16;5.10;99.90
14401;DHT22;7285;50.894;5.462;2024-02-28T09:12:46;5.40;99.90
14401;DHT22;7285;50.894;5.462;2024-02-28T09:15:15;5.30;99.90
14401;DHT22;7285;50.894;5.462;2024-02-28T09:17:42;5.50;99.90
14401;DHT22;7285;50.894;5.462;2024-02-28T09:20:09;5.60;99.90
14401;DHT22;7285;50.894;5.462;2024-02-28T09:22:37;5.90;99.90
14401;DHT22;7285;50.894;5.462;2024-02-28T09:25:06;6.00;99.90
14401;DHT22;7285;50.894;5.462;2024-02-28T09:27:34;5.90;99.90
14401;DHT22;7285;50.894;5.462;2024-02-28T09:30:01;5.90;99.90
14401;DHT22;7285;50.894;5.462;2024-02-28T09:32:29;6.10;99.90
14401;DHT22;7285;50.894;5.462;2024-02-28T09:34:56;6.20;99.90
14401;DHT22;7285;50.894;5.462;2024-02-28T09:37:23;6.30;99.90
14401;DHT22;7285;50.894;5.462;2024-02-28T09:39:50;6.30;99.90
14401;DHT22;7285;50.894;5.462;2024-02-28T09:42:18;6.30;99.90
14401;DHT22;7285;50.894;5.462;2024-02-28T09:44:45;6.30;99.90
14401;DHT22;7285;50.894;5.462;2024-02-28T09:47:13;6.50;99.90
14401;DHT22;7285;50.894;5.462;2024-02-28T09:49:42;6.70;99.90
14401;DHT22;7285;50.894;5.462;2024-02-28T09:52:09;7.00;99.90
14401;DHT22;7285;50.894;5.462;2024-02-28T09:54:36;7.30;99.90
14401;DHT22;7285;50.894;5.462;2024-02-28T09:57:04;7.00;99.90
14401;DHT22;7285;50.894;5.462;2024-02-28T09:59:31;6.90;99.90
14401;DHT22;7285;50.894;5.462;2024-02-28T10:02:00;6.90;99.90
14401;DHT22;7285;50.894;5.462;2024-02-28T10:04:29;6.80;99.90
14401;DHT22;7285;50.894;5.462;2024-02-28T10:06:57;6.80;99.90
14401;DHT22;7285;50.894;5.462;2024-02-28T10:09:24;7.00;99.90
14401;DHT22;7285;50.894;5.462;2024-02-28T10:11:52;7.50;99.90
14401;DHT22;7285;50.894;5.462;2024-02-28T10:14:19;7.70;99.90
14401;DHT22;7285;50.894;5.462;2024-02-28T10:16:46;8.30;99.90
14401;DHT22;7285;50.894;5.462;2024-02-28T10:19:13;8.30;99.90
14401;DHT22;7285;50.894;5.462;2024-02-28T10:21:40;8.50;99.90
14401;DHT22;7285;50.894;5.462;2024-02-28T10:24:08;8.80;99.90
14401;DHT22;7285;50.894;5.462;2024-02-28T10:26:45;8.90;99.90
14401;DHT22;7285;50.894;5.462;2024-02-28T10:29:13;8.70;99.90
14401;DHT22;7285;50.894;5.462;2024-02-28T10:31:41;8.60;99.90
14401;DHT22;7285;50.894;5.462;2024-02-28T10:34:09;8.50;99.90
14401;DHT22;7285;50.894;5.462;2024-02-28T10:36:36;8.70;99.90
14401;DHT22;7285;50.894;5.462;2024-02-28T10:39:04;9.20;99.90
14401;DHT22;7285;50.894;5.462;2024-02-28T10:41:34;9.70;99.90
14401;DHT22;7285;50.894;5.462;2024-02-28T10:44:01;10.00;99.90
14401;DHT22;7285;50.894;5.462;2024-02-28T10:46:28;10.20;99.90
14401;DHT22;7285;50.894;5.462;2024-02-28T10:48:55;10.10;99.90
14401;DHT22;7285;50.894;5.462;2024-02-28T10:51:24;10.40;99.90
14401;DHT22;7285;50.894;5.462;2024-02-28T10:54:02;10.30;99.90
14401;DHT22;7285;50.894;5.462;2024-02-28T10:56:35;10.50;99.90
14401;DHT22;7285;50.894;5.462;2024-02-28T10:59:02;10.50;99.90
14401;DHT22;7285;50.894;5.462;2024-02-28T11:01:32;10.60;99.90
14401;DHT22;7285;50.894;5.462;2024-02-28T11:03:59;10.60;99.90
14401;DHT22;7285;50.894;5.462;2024-02-28T11:06:26;10.60;99.90
14401;DHT22;7285;50.894;5.462;2024-02-28T11:08:53;10.40;99.90
14401;DHT22;7285;50.894;5.462;2024-02-28T11:11:22;10.50;99.90
14401;DHT22;7285;50.894;5.462;2024-02-28T11:13:54;10.00;99.90
14401;DHT22;7285;50.894;5.462;2024-02-28T11:16:28;10.20;99.90
14401;DHT22;7285;50.894;5.462;2024-02-28T11:18:55;10.10;99.90
14401;DHT22;7285;50.894;5.462;2024-02-28T11:21:24;9.90;99.90
14401;DHT22;7285;50.894;5.462;2024-02-28T11:23:57;9.80;99.90
14401;DHT22;7285;50.894;5.462;2024-02-28T11:26:25;9.90;99.90
14401;DHT22;7285;50.894;5.462;2024-02-28T11:28:54;9.80;99.90
14401;DHT22;7285;50.894;5.462;2024-02-28T11:31:21;9.50;99.90
14401;DHT22;7285;50.894;5.462;2024-02-28T11:33:48;9.50;99.90
14401;DHT22;7285;50.894;5.462;2024-02-28T11:36:16;9.30;99.90
14401;DHT22;7285;50.894;5.462;2024-02-28T11:38:43;9.30;99.90
14401;DHT22;7285;50.894;5.462;2024-02-28T11:41:10;9.20;99.90
14401;DHT22;7285;50.894;5.462;2024-02-28T11:43:37;9.20;99.90
14401;DHT22;7285;50.894;5.462;2024-02-28T11:46:09;9.20;99.90
14401;DHT22;7285;50.894;5.462;2024-02-28T11:48:36;9.20;99.90
14401;DHT22;7285;50.894;5.462;2024-02-28T11:51:03;9.00;99.90
14401;DHT22;7285;50.894;5.462;2024-02-28T11:53:30;9.00;99.90
14401;DHT22;7285;50.894;5.462;2024-02-28T11:55:57;9.00;99.90
14401;DHT22;7285;50.894;5.462;2024-02-28T11:58:25;9.20;99.90
14401;DHT22;7285;50.894;5.462;2024-02-28T12:00:52;9.20;99.90
14401;DHT22;7285;50.894;5.462;2024-02-28T12:03:24;9.20;99.90
14401;DHT22;7285;50.894;5.462;2024-02-28T12:05:52;9.40;99.90
14401;DHT22;7285;50.894;5.462;2024-02-28T12:08:19;9.50;99.90
14401;DHT22;7285;50.894;5.462;2024-02-28T12:10:46;9.80;99.90
14401;DHT22;7285;50.894;5.462;2024-02-28T12:13:16;9.90;99.90
14401;DHT22;7285;50.894;5.462;2024-02-28T12:15:45;9.70;99.90
14401;DHT22;7285;50.894;5.462;2024-02-28T12:18:15;10.10;99.90
14401;DHT22;7285;50.894;5.462;2024-02-28T12:20:43;10.10;99.90
14401;DHT22;7285;50.894;5.462;2024-02-28T12:23:11;10.30;99.90
14401;DHT22;7285;50.894;5.462;2024-02-28T12:25:38;10.50;99.90
14401;DHT22;7285;50.894;5.462;2024-02-28T12:28:05;10.60;99.90
14401;DHT22;7285;50.894;5.462;2024-02-28T12:30:39;10.70;99.90
14401;DHT22;7285;50.894;5.462;2024-02-28T12:33:06;10.70;99.90
14401;DHT22;7285;50.894;5.462;2024-02-28T12:35:33;10.80;99.90
14401;DHT22;7285;50.894;5.462;2024-02-28T12:38:01;10.80;99.90
14401;DHT22;7285;50.894;5.462;2024-02-28T12:40:28;11.00;99.90
14401;DHT22;7285;50.894;5.462;2024-02-28T12:42:55;11.10;99.90
14401;DHT22;7285;50.894;5.462;2024-02-28T12:45:22;11.20;99.90
14401;DHT22;7285;50.894;5.462;2024-02-28T12:47:49;11.30;99.90
14401;DHT22;7285;50.894;5.462;2024-02-28T12:50:16;11.30;99.90
14401;DHT22;7285;50.894;5.462;2024-02-28T12:52:44;11.40;99.90
14401;DHT22;7285;50.894;5.462;2024-02-28T12:55:12;11.30;99.90
14401;DHT22;7285;50.894;5.462;2024-02-28T12:57:40;11.40;99.90
14401;DHT22;7285;50.894;5.462;2024-02-28T13:00:07;11.40;99.90
14401;DHT22;7285;50.894;5.462;2024-02-28T13:02:34;11.40;99.90
14401;DHT22;7285;50.894;5.462;2024-02-28T13:05:01;11.50;99.90
14401;DHT22;7285;50.894;5.462;2024-02-28T13:07:28;11.60;99.90
14401;DHT22;7285;50.894;5.462;2024-02-28T13:09:55;11.60;99.90
14401;DHT22;7285;50.894;5.462;2024-02-28T13:12:23;11.50;99.90
14401;DHT22;7285;50.894;5.462;2024-02-28T13:14:50;11.60;99.90
14401;DHT22;7285;50.894;5.462;2024-02-28T13:17:17;11.70;99.90
14401;DHT22;7285;50.894;5.462;2024-02-28T13:19:45;11.60;99.90
14401;DHT22;7285;50.894;5.462;2024-02-28T13:22:11;11.80;99.90
14401;DHT22;7285;50.894;5.462;2024-02-28T13:24:38;11.90;99.90
14401;DHT22;7285;50.894;5.462;2024-02-28T13:27:05;12.20;99.90
14401;DHT22;7285;50.894;5.462;2024-02-28T13:29:34;12.60;99.90
14401;DHT22;7285;50.894;5.462;2024-02-28T13:32:01;12.60;99.90
14401;DHT22;7285;50.894;5.462;2024-02-28T13:34:28;13.00;99.90
14401;DHT22;7285;50.894;5.462;2024-02-28T13:36:57;13.30;99.90
14401;DHT22;7285;50.894;5.462;2024-02-28T13:39:24;13.40;99.90
14401;DHT22;7285;50.894;5.462;2024-02-28T13:41:52;14.10;99.90
14401;DHT22;7285;50.894;5.462;2024-02-28T13:44:19;13.90;99.90
14401;DHT22;7285;50.894;5.462;2024-02-28T13:46:47;13.20;99.90
14401;DHT22;7285;50.894;5.462;2024-02-28T13:49:16;13.00;99.90
14401;DHT22;7285;50.894;5.462;2024-02-28T13:51:43;12.80;99.90
14401;DHT22;7285;50.894;5.462;2024-02-28T13:54:10;12.70;99.90
14401;DHT22;7285;50.894;5.462;2024-02-28T13:56:37;12.40;99.90
14401;DHT22;7285;50.894;5.462;2024-02-28T13:59:04;12.20;99.90
14401;DHT22;7285;50.894;5.462;2024-02-28T14:01:32;11.90;99.90
14401;DHT22;7285;50.894;5.462;2024-02-28T14:04:00;11.80;99.90
14401;DHT22;7285;50.894;5.462;2024-02-28T14:06:27;11.70;99.90
14401;DHT22;7285;50.894;5.462;2024-02-28T14:08:54;11.60;99.90
14401;DHT22;7285;50.894;5.462;2024-02-28T14:11:22;11.80;99.90
14401;DHT22;7285;50.894;5.462;2024-02-28T14:13:49;11.90;99.90
14401;DHT22;7285;50.894;5.462;2024-02-28T14:16:16;11.90;99.90
14401;DHT22;7285;50.894;5.462;2024-02-28T14:18:45;11.90;99.90
14401;DHT22;7285;50.894;5.462;2024-02-28T14:21:13;11.80;99.90
14401;DHT22;7285;50.894;5.462;2024-02-28T14:23:40;11.80;99.90
14401;DHT22;7285;50.894;5.462;2024-02-28T14:26:07;11.50;99.90
14401;DHT22;7285;50.894;5.462;2024-02-28T14:28:34;11.50;99.90
14401;DHT22;7285;50.894;5.462;2024-02-28T14:31:01;11.30;99.90
14401;DHT22;7285;50.894;5.462;2024-02-28T14:33:28;11.20;99.90
14401;DHT22;7285;50.894;5.462;2024-02-28T14:35:55;11.20;99.90
14401;DHT22;7285;50.894;5.462;2024-02-28T14:38:24;11.10;99.90
14401;DHT22;7285;50.894;5.462;2024-02-28T14:40:50;11.10;99.90
14401;DHT22;7285;50.894;5.462;2024-02-28T14:43:17;11.10;99.90
14401;DHT22;7285;50.894;5.462;2024-02-28T14:45:44;11.10;99.90
14401;DHT22;7285;50.894;5.462;2024-02-28T14:48:11;11.00;99.90
14401;DHT22;7285;50.894;5.462;2024-02-28T14:50:38;10.90;99.90
14401;DHT22;7285;50.894;5.462;2024-02-28T14:53:05;10.90;99.90
14401;DHT22;7285;50.894;5.462;2024-02-28T14:55:34;10.90;99.90
14401;DHT22;7285;50.894;5.462;2024-02-28T14:58:01;10.90;99.90
14401;DHT22;7285;50.894;5.462;2024-02-28T15:00:28;10.80;99.90
14401;DHT22;7285;50.894;5.462;2024-02-28T15:02:54;10.80;99.90
14401;DHT22;7285;50.894;5.462;2024-02-28T15:05:21;10.60;99.90
14401;DHT22;7285;50.894;5.462;2024-02-28T15:07:49;10.70;99.90
14401;DHT22;7285;50.894;5.462;2024-02-28T15:10:17;10.70;99.90
14401;DHT22;7285;50.894;5.462;2024-02-28T15:12:46;10.60;99.90
14401;DHT22;7285;50.894;5.462;2024-02-28T15:15:13;10.50;99.90
14401;DHT22;7285;50.894;5.462;2024-02-28T15:17:40;10.60;99.90
14401;DHT22;7285;50.894;5.462;2024-02-28T15:20:08;10.60;99.90
14401;DHT22;7285;50.894;5.462;2024-02-28T15:22:35;10.80;99.90
14401;DHT22;7285;50.894;5.462;2024-02-28T15:25:02;11.20;99.90
14401;DHT22;7285;50.894;5.462;2024-02-28T15:27:29;11.10;99.90
14401;DHT22;7285;50.894;5.462;2024-02-28T15:29:57;11.00;99.90
14401;DHT22;7285;50.894;5.462;2024-02-28T15:32:24;11.00;99.90
14401;DHT22;7285;50.894;5.462;2024-02-28T15:34:51;10.90;99.90
14401;DHT22;7285;50.894;5.462;2024-02-28T15:37:18;10.80;99.90
14401;DHT22;7285;50.894;5.462;2024-02-28T15:39:45;10.60;99.90
14401;DHT22;7285;50.894;5.462;2024-02-28T15:42:14;10.60;99.90
14401;DHT22;7285;50.894;5.462;2024-02-28T15:44:41;10.70;99.90
14401;DHT22;7285;50.894;5.462;2024-02-28T15:47:09;10.60;99.90
14401;DHT22;7285;50.894;5.462;2024-02-28T15:49:36;10.50;99.90
14401;DHT22;7285;50.894;5.462;2024-02-28T15:52:04;10.60;99.90